createdAt,value
2023-05-05T00:01:15.821Z,71.33
2023-05-05T00:03:42.809Z,70.77
2023-05-05T00:06:09.773Z,71.17
2023-05-05T00:08:36.406Z,71.58
2023-05-05T00:11:03.091Z,72.20
2023-05-05T00:13:29.715Z,71.56
2023-05-05T00:15:57.393Z,72.39
2023-05-05T00:18:24.087Z,72.00
2023-05-05T00:20:50.957Z,72.38
2023-05-05T00:23:17.823Z,72.38
2023-05-05T00:25:44.544Z,72.82
2023-05-05T00:28:11.516Z,73.12
2023-05-05T00:30:39.648Z,73.16
2023-05-05T00:33:06.664Z,73.54
2023-05-05T00:35:33.550Z,73.74
2023-05-05T00:38:00.216Z,73.67
2023-05-05T00:40:26.949Z,73.77
2023-05-05T00:42:53.931Z,74.18
2023-05-05T00:45:20.644Z,74.32
2023-05-05T00:47:58.849Z,75.23
2023-05-05T00:50:31.192Z,74.78
2023-05-05T00:53:01.639Z,75.37
2023-05-05T00:55:32.019Z,75.29
2023-05-05T00:58:00.328Z,75.26
2023-05-05T01:00:28.485Z,75.67
2023-05-05T01:02:55.584Z,75.68
2023-05-05T01:05:24.769Z,75.76
2023-05-05T01:08:19.524Z,75.96
2023-05-05T01:10:51.878Z,75.81
2023-05-05T01:13:36.684Z,76.03
2023-05-05T01:16:19.399Z,76.69
2023-05-05T01:18:56.526Z,76.79
2023-05-05T01:21:38.617Z,76.77
2023-05-05T01:24:23.674Z,77.28
2023-05-05T01:27:27.827Z,77.14
2023-05-05T01:30:01.073Z,77.02
2023-05-05T01:32:34.290Z,76.96
2023-05-05T01:35:17.093Z,77.02
2023-05-05T01:37:50.721Z,77.91
2023-05-05T01:40:24.983Z,78.04
2023-05-05T01:42:54.294Z,77.78
2023-05-05T01:45:24.908Z,77.40
2023-05-05T01:47:53.770Z,78.04
2023-05-05T01:50:21.560Z,77.64
2023-05-05T01:52:50.348Z,77.76
2023-05-05T01:55:19.232Z,77.76
2023-05-05T01:57:47.416Z,77.81
2023-05-05T02:00:16.879Z,78.13
2023-05-05T02:02:46.874Z,78.10
2023-05-05T02:05:15.658Z,77.69
2023-05-05T02:07:44.126Z,78.23
2023-05-05T02:10:13.661Z,78.29
2023-05-05T02:12:42.712Z,78.68
2023-05-05T02:15:11.298Z,78.28
2023-05-05T02:17:42.305Z,78.39
2023-05-05T02:20:12.207Z,78.71
2023-05-05T02:22:38.892Z,77.99
2023-05-05T02:25:06.480Z,78.56
2023-05-05T02:27:35.789Z,78.28
2023-05-05T02:30:11.201Z,78.80
2023-05-05T02:32:44.702Z,78.26
2023-05-05T02:35:15.643Z,78.28
2023-05-05T02:37:48.321Z,78.47
2023-05-05T02:40:19.991Z,78.16
2023-05-05T02:42:48.021Z,78.66
2023-05-05T02:45:17.465Z,78.30
2023-05-05T02:47:44.152Z,78.33
2023-05-05T02:50:11.401Z,78.55
2023-05-05T02:52:38.298Z,78.14
2023-05-05T02:55:05.921Z,78.37
2023-05-05T02:57:48.575Z,78.87
2023-05-05T03:00:24.278Z,78.54
2023-05-05T03:03:32.513Z,78.61
2023-05-05T03:06:02.608Z,79.36
2023-05-05T03:08:40.174Z,79.24
2023-05-05T03:11:13.662Z,79.56
2023-05-05T03:13:44.207Z,79.05
2023-05-05T03:16:12.344Z,79.66
2023-05-05T03:18:42.361Z,79.73
2023-05-05T03:21:09.589Z,79.51
2023-05-05T03:23:36.616Z,79.27
2023-05-05T03:26:03.397Z,79.97
2023-05-05T03:28:30.085Z,79.37
2023-05-05T03:30:57.362Z,79.96
2023-05-05T03:33:24.049Z,79.94
2023-05-05T03:35:50.889Z,79.79
2023-05-05T03:38:17.893Z,80.13
2023-05-05T03:40:45.033Z,79.62
2023-05-05T03:43:11.961Z,80.10
2023-05-05T03:45:38.792Z,80.33
2023-05-05T03:48:07.013Z,79.98
2023-05-05T03:50:34.106Z,79.67
2023-05-05T03:53:00.983Z,80.08
2023-05-05T03:55:27.722Z,79.60
2023-05-05T03:57:54.414Z,79.90
2023-05-05T04:00:21.079Z,79.73
2023-05-05T04:02:47.837Z,79.23
2023-05-05T04:05:14.564Z,79.27
2023-05-05T04:07:41.169Z,78.81
2023-05-05T04:10:08.760Z,78.35
2023-05-05T04:12:35.544Z,78.58
2023-05-05T04:15:02.252Z,77.76
2023-05-05T04:17:29.001Z,77.78
2023-05-05T04:19:55.814Z,77.62
2023-05-05T04:22:22.399Z,77.12
2023-05-05T04:24:50.098Z,77.14
2023-05-05T04:27:16.735Z,76.96
2023-05-05T04:29:43.393Z,76.15
2023-05-05T04:32:09.995Z,75.38
2023-05-05T04:34:36.662Z,75.97
2023-05-05T04:37:03.751Z,75.16
2023-05-05T04:39:30.480Z,75.11
2023-05-05T04:41:57.272Z,74.60
2023-05-05T04:44:23.915Z,74.28
2023-05-05T04:46:50.684Z,74.89
2023-05-05T04:49:17.582Z,73.71
2023-05-05T04:51:44.232Z,74.56
2023-05-05T04:54:10.946Z,73.12
2023-05-05T04:56:37.815Z,73.06
2023-05-05T04:59:04.503Z,73.29
2023-05-05T05:01:31.814Z,73.15
2023-05-05T05:03:58.897Z,72.31
2023-05-05T05:06:25.855Z,71.72
2023-05-05T05:08:53.536Z,72.10
2023-05-05T05:11:20.247Z,72.31
2023-05-05T05:13:47.189Z,71.06
2023-05-05T05:16:14.292Z,71.20
2023-05-05T05:18:41.081Z,70.99
2023-05-05T05:21:07.803Z,70.83
2023-05-05T05:23:34.829Z,70.07
2023-05-05T05:26:01.606Z,69.90
2023-05-05T05:28:28.435Z,69.73
2023-05-05T05:30:55.104Z,69.36
2023-05-05T05:33:21.844Z,69.64
2023-05-05T05:35:48.537Z,68.88
2023-05-05T05:38:15.385Z,69.24
2023-05-05T05:40:42.368Z,68.98
2023-05-05T05:43:09.084Z,68.73
2023-05-05T05:45:35.905Z,68.85
2023-05-05T05:48:04.162Z,68.59
2023-05-05T05:50:33.682Z,68.48
2023-05-05T05:53:01.553Z,68.73
2023-05-05T05:55:28.187Z,68.47
2023-05-05T05:57:55.962Z,67.69
2023-05-05T06:00:23.193Z,66.77
2023-05-05T06:02:51.660Z,65.25
2023-05-05T06:05:18.320Z,64.42
2023-05-05T06:07:45.040Z,63.44
2023-05-05T06:10:26.527Z,61.80
2023-05-05T06:12:54.501Z,62.05
2023-05-05T06:15:21.352Z,61.14
2023-05-05T06:17:49.168Z,61.26
2023-05-05T06:20:16.081Z,61.73
2023-05-05T06:22:43.027Z,61.40
2023-05-05T06:25:10.188Z,62.02
2023-05-05T06:27:38.797Z,63.12
2023-05-05T06:30:07.638Z,63.22
2023-05-05T06:32:34.625Z,63.25
2023-05-05T06:35:02.599Z,62.95
2023-05-05T06:37:29.223Z,62.70
2023-05-05T06:39:56.893Z,62.63
2023-05-05T06:42:23.585Z,62.36
2023-05-05T06:44:50.379Z,60.73
2023-05-05T06:47:17.258Z,59.72
2023-05-05T06:49:46.320Z,58.54
2023-05-05T06:52:13.020Z,58.66
2023-05-05T06:54:39.573Z,59.06
2023-05-05T06:57:06.575Z,58.02
2023-05-05T06:59:33.190Z,58.99
2023-05-05T07:02:00.051Z,59.10
2023-05-05T07:04:26.946Z,59.54
2023-05-05T07:06:55.291Z,59.30
2023-05-05T07:09:22.317Z,59.95
2023-05-05T07:11:49.302Z,59.72
2023-05-05T07:14:16.374Z,59.03
2023-05-05T07:16:43.132Z,59.92
2023-05-05T07:19:10.804Z,59.82
2023-05-05T07:21:37.984Z,59.78
2023-05-05T07:24:06.630Z,58.36
2023-05-05T07:26:33.651Z,57.65
2023-05-05T07:29:00.586Z,58.24
2023-05-05T07:31:27.830Z,58.75
2023-05-05T07:33:55.095Z,59.23
2023-05-05T07:36:22.569Z,56.59
2023-05-05T07:38:49.704Z,57.19
2023-05-05T07:41:16.836Z,56.36
2023-05-05T07:43:44.653Z,55.87
2023-05-05T07:46:12.565Z,56.52
2023-05-05T07:48:41.848Z,54.89
2023-05-05T07:51:09.530Z,54.38
2023-05-05T07:53:36.907Z,54.06
2023-05-05T07:56:04.438Z,54.51
2023-05-05T07:58:31.404Z,53.23
2023-05-05T08:00:58.076Z,52.89
2023-05-05T08:03:25.139Z,52.55
2023-05-05T08:05:54.242Z,53.08
2023-05-05T08:08:25.158Z,53.03
2023-05-05T08:10:53.182Z,52.58
2023-05-05T08:13:20.500Z,53.10
2023-05-05T08:15:47.324Z,54.27
2023-05-05T08:18:15.545Z,55.23
2023-05-05T08:20:43.253Z,55.15
2023-05-05T08:23:09.966Z,53.18
2023-05-05T08:25:36.880Z,53.34
2023-05-05T08:28:03.625Z,52.80
2023-05-05T08:30:30.750Z,54.01
2023-05-05T08:32:59.218Z,51.80
2023-05-05T08:35:26.152Z,52.23
2023-05-05T08:37:52.866Z,51.90
2023-05-05T08:40:21.028Z,51.57
2023-05-05T08:42:51.296Z,51.11
2023-05-05T08:45:22.133Z,51.27
2023-05-05T08:47:50.988Z,51.56
2023-05-05T08:50:25.490Z,52.38
2023-05-05T08:52:58.316Z,51.45
2023-05-05T08:55:27.650Z,52.08
2023-05-05T08:57:58.399Z,52.51
2023-05-05T09:00:27.248Z,53.13
2023-05-05T09:02:56.921Z,51.70
2023-05-05T09:05:24.078Z,51.81
2023-05-05T09:07:51.320Z,51.68
2023-05-05T09:10:19.188Z,49.63
2023-05-05T09:12:48.667Z,50.57
2023-05-05T09:15:18.492Z,51.00
2023-05-05T09:17:45.199Z,48.96
2023-05-05T09:20:13.672Z,50.89
2023-05-05T09:22:46.217Z,51.40
2023-05-05T09:25:15.334Z,52.42
2023-05-05T09:27:46.859Z,51.04
2023-05-05T09:30:24.504Z,50.71
2023-05-05T09:32:53.366Z,51.26
2023-05-05T09:35:24.115Z,50.79
2023-05-05T09:37:54.205Z,51.25
2023-05-05T09:40:23.787Z,52.67
2023-05-05T09:43:02.368Z,53.21
2023-05-05T09:45:29.305Z,51.89
2023-05-05T09:47:59.839Z,50.60
2023-05-05T09:50:30.512Z,50.16
2023-05-05T09:53:03.259Z,51.06
2023-05-05T09:55:33.530Z,51.14
2023-05-05T09:58:29.938Z,50.53
2023-05-05T10:00:59.384Z,50.46
2023-05-05T10:03:31.514Z,50.31
2023-05-05T10:05:59.744Z,51.88
2023-05-05T10:08:26.590Z,50.72
2023-05-05T10:11:02.892Z,49.82
2023-05-05T10:13:30.307Z,51.23
2023-05-05T10:15:59.618Z,50.53
2023-05-05T10:18:28.729Z,50.28
2023-05-05T10:21:03.553Z,50.91
2023-05-05T10:23:41.614Z,52.98
2023-05-05T10:26:13.578Z,53.38
2023-05-05T10:28:56.407Z,52.09
2023-05-05T10:31:45.808Z,51.08
2023-05-05T10:34:36.977Z,51.32
2023-05-05T10:37:04.973Z,51.21
2023-05-05T10:39:31.908Z,51.69
2023-05-05T10:42:04.878Z,50.48
2023-05-05T10:44:34.327Z,49.84
2023-05-05T10:47:03.008Z,50.51
2023-05-05T10:50:18.001Z,51.24
2023-05-05T10:52:51.637Z,49.34
2023-05-05T10:55:35.986Z,50.72
2023-05-05T10:58:02.710Z,51.19
2023-05-05T11:00:38.302Z,49.37
2023-05-05T11:03:17.138Z,49.12
2023-05-05T11:06:02.599Z,47.71
2023-05-05T11:08:31.020Z,47.89
2023-05-05T11:10:58.064Z,48.43
2023-05-05T11:13:25.737Z,47.72
2023-05-05T11:15:54.331Z,48.52
2023-05-05T11:18:43.268Z,48.01
2023-05-05T11:21:17.989Z,48.34
2023-05-05T11:23:46.554Z,47.36
2023-05-05T11:26:14.509Z,48.22
2023-05-05T11:29:02.941Z,48.18
2023-05-05T11:31:33.398Z,46.56
2023-05-05T11:34:30.386Z,46.83
2023-05-05T11:37:03.261Z,48.55
2023-05-05T11:39:42.713Z,47.83
2023-05-05T11:42:25.698Z,48.82
2023-05-05T11:44:53.955Z,50.23
2023-05-05T11:47:21.550Z,50.79
2023-05-05T11:49:49.659Z,51.04
2023-05-05T11:52:16.774Z,49.85
2023-05-05T11:54:50.713Z,50.02
2023-05-05T11:57:21.585Z,49.73
2023-05-05T11:59:54.122Z,50.56
2023-05-05T12:02:24.345Z,50.27
2023-05-05T12:04:51.546Z,50.78
2023-05-05T12:07:20.196Z,50.77
2023-05-05T12:09:48.582Z,51.49
2023-05-05T12:12:16.505Z,51.59
2023-05-05T12:14:52.580Z,52.31
2023-05-05T12:17:21.171Z,51.89
2023-05-05T12:19:51.645Z,51.77
2023-05-05T12:22:24.642Z,52.46
2023-05-05T12:24:59.948Z,52.41
2023-05-05T12:27:27.906Z,52.64
2023-05-05T12:29:56.156Z,52.79
2023-05-05T12:32:24.508Z,51.88
2023-05-05T12:34:56.367Z,51.10
2023-05-05T12:37:27.577Z,51.97
2023-05-05T12:39:55.127Z,52.64
2023-05-05T12:42:23.066Z,51.96
2023-05-05T12:44:50.034Z,52.09
2023-05-05T12:47:44.120Z,51.46
2023-05-05T12:50:11.843Z,52.48
2023-05-05T12:52:46.212Z,52.58
2023-05-05T12:55:13.262Z,52.04
2023-05-05T12:58:00.469Z,50.95
2023-05-05T13:00:30.106Z,50.83
2023-05-05T13:02:57.015Z,51.59
2023-05-05T13:05:34.120Z,49.94
2023-05-05T13:08:00.758Z,49.67
2023-05-05T13:10:28.383Z,52.29
2023-05-05T13:12:56.817Z,50.45
2023-05-05T13:15:24.579Z,52.03
2023-05-05T13:17:51.229Z,51.44
2023-05-05T13:20:18.241Z,51.93
2023-05-05T13:22:44.831Z,49.98
2023-05-05T13:25:11.801Z,49.49
2023-05-05T13:27:38.667Z,49.76
2023-05-05T13:30:06.320Z,50.09
2023-05-05T13:32:33.121Z,50.72
2023-05-05T13:35:02.949Z,52.46
2023-05-05T13:37:29.613Z,51.62
2023-05-05T13:39:59.351Z,51.81
2023-05-05T13:42:26.065Z,51.28
2023-05-05T13:44:53.644Z,50.43
2023-05-05T13:47:23.091Z,50.80
2023-05-05T13:49:51.197Z,51.36
2023-05-05T13:52:18.789Z,52.17
2023-05-05T13:54:45.411Z,52.95
2023-05-05T13:57:13.383Z,52.82
2023-05-05T13:59:40.033Z,53.06
2023-05-05T14:02:08.277Z,52.89
2023-05-05T14:04:35.093Z,52.02
2023-05-05T14:07:03.067Z,52.16
2023-05-05T14:09:29.834Z,52.80
2023-05-05T14:11:59.547Z,53.32
2023-05-05T14:14:26.131Z,53.75
2023-05-05T14:16:52.904Z,53.25
2023-05-05T14:19:20.596Z,52.54
2023-05-05T14:21:47.278Z,52.45
2023-05-05T14:24:14.520Z,52.31
2023-05-05T14:26:41.442Z,51.60
2023-05-05T14:29:08.358Z,50.51
2023-05-05T14:31:36.312Z,50.46
2023-05-05T14:34:03.293Z,52.32
2023-05-05T14:36:30.259Z,53.94
2023-05-05T14:38:59.419Z,54.40
2023-05-05T14:41:26.471Z,53.67
2023-05-05T14:43:53.246Z,53.68
2023-05-05T14:46:20.508Z,51.96
2023-05-05T14:48:47.460Z,51.89
2023-05-05T14:51:17.345Z,52.49
2023-05-05T14:53:48.938Z,52.88
2023-05-05T14:56:16.106Z,53.60
2023-05-05T14:58:52.175Z,54.05
2023-05-05T15:01:21.259Z,55.14
2023-05-05T15:03:53.134Z,55.65
2023-05-05T15:06:20.880Z,55.51
2023-05-05T15:08:49.591Z,55.71
2023-05-05T15:11:20.912Z,55.23
2023-05-05T15:13:48.151Z,54.87
2023-05-05T15:16:15.144Z,54.72
2023-05-05T15:18:42.779Z,55.44
2023-05-05T15:21:12.420Z,55.68
2023-05-05T15:23:39.890Z,56.07
2023-05-05T15:26:07.048Z,56.10
2023-05-05T15:28:35.065Z,56.65
2023-05-05T15:31:05.996Z,56.79
2023-05-05T15:33:34.232Z,56.72
2023-05-05T15:36:03.162Z,57.46
2023-05-05T15:38:31.589Z,57.46
2023-05-05T15:40:58.635Z,58.01
2023-05-05T15:43:25.555Z,58.29
2023-05-05T15:45:54.655Z,58.18
2023-05-05T15:48:21.344Z,58.25
2023-05-05T15:50:52.158Z,58.54
2023-05-05T15:53:26.398Z,58.79
2023-05-05T15:55:53.455Z,58.91
2023-05-05T15:58:20.552Z,59.12
2023-05-05T16:00:47.384Z,58.36
2023-05-05T16:03:14.797Z,58.75
2023-05-05T16:05:42.005Z,58.46
2023-05-05T16:08:10.545Z,58.66
2023-05-05T16:10:38.040Z,58.67
2023-05-05T16:13:05.274Z,58.82
2023-05-05T16:15:32.161Z,58.82
2023-05-05T16:17:59.115Z,58.97
2023-05-05T16:20:26.201Z,59.03
2023-05-05T16:22:53.074Z,58.87
2023-05-05T16:25:20.394Z,58.88
2023-05-05T16:27:47.559Z,58.73
2023-05-05T16:30:15.735Z,58.47
2023-05-05T16:32:45.522Z,59.26
2023-05-05T16:35:12.774Z,59.31
2023-05-05T16:37:39.527Z,59.11
2023-05-05T16:40:07.291Z,59.82
2023-05-05T16:42:34.355Z,60.20
2023-05-05T16:45:01.149Z,60.13
2023-05-05T16:47:28.265Z,60.44
2023-05-05T16:49:56.726Z,60.50
2023-05-05T16:52:23.555Z,60.90
2023-05-05T16:54:57.903Z,60.76
2023-05-05T16:57:24.893Z,60.64
2023-05-05T16:59:55.033Z,60.17
2023-05-05T17:02:22.068Z,60.69
2023-05-05T17:04:49.186Z,61.26
2023-05-05T17:07:16.121Z,61.46
2023-05-05T17:09:43.200Z,61.77
2023-05-05T17:12:10.128Z,62.01
2023-05-05T17:14:36.866Z,63.11
2023-05-05T17:17:03.810Z,62.74
2023-05-05T17:19:30.880Z,63.24
2023-05-05T17:21:58.471Z,63.80
2023-05-05T17:24:26.380Z,64.22
2023-05-05T17:26:53.155Z,64.03
2023-05-05T17:29:23.048Z,63.73
2023-05-05T17:31:55.129Z,63.73
2023-05-05T17:34:22.125Z,63.73
2023-05-05T17:36:49.405Z,63.35
2023-05-05T17:39:16.126Z,63.87
2023-05-05T17:41:42.964Z,63.89
2023-05-05T17:44:09.579Z,63.92
2023-05-05T17:46:39.389Z,63.72
2023-05-05T17:49:06.477Z,64.04
2023-05-05T17:51:34.526Z,64.00
2023-05-05T17:54:01.608Z,64.09
2023-05-05T17:56:28.271Z,63.99
2023-05-05T17:58:56.138Z,64.42
2023-05-05T18:01:23.908Z,64.67
2023-05-05T18:03:50.865Z,64.38
2023-05-05T18:06:18.567Z,64.47
2023-05-05T18:08:45.466Z,64.86
2023-05-05T18:11:12.240Z,64.87
2023-05-05T18:13:39.767Z,64.64
2023-05-05T18:16:06.891Z,65.06
2023-05-05T18:18:33.691Z,64.93
2023-05-05T18:21:03.060Z,65.24
2023-05-05T18:23:29.719Z,64.64
2023-05-05T18:25:56.435Z,64.90
2023-05-05T18:28:23.740Z,64.38
2023-05-05T18:30:50.752Z,64.87
2023-05-05T18:33:17.411Z,65.23
2023-05-05T18:35:44.101Z,65.10
2023-05-05T18:38:14.865Z,65.29
2023-05-05T18:40:41.592Z,64.99
2023-05-05T18:43:09.792Z,65.90
2023-05-05T18:45:36.953Z,66.95
2023-05-05T18:48:04.856Z,67.37
2023-05-05T18:50:33.277Z,67.43
2023-05-05T18:53:00.275Z,67.92
2023-05-05T18:55:26.827Z,68.64
2023-05-05T18:57:53.595Z,68.42
2023-05-05T19:00:21.031Z,68.79
2023-05-05T19:02:47.865Z,68.78
2023-05-05T19:05:15.010Z,68.67
2023-05-05T19:07:42.885Z,68.05
2023-05-05T19:10:10.193Z,68.57
2023-05-05T19:12:36.965Z,68.67
2023-05-05T19:15:03.798Z,68.49
2023-05-05T19:17:30.470Z,68.58
2023-05-05T19:19:57.097Z,68.65
2023-05-05T19:22:24.044Z,67.69
2023-05-05T19:24:50.664Z,67.70
2023-05-05T19:27:17.467Z,67.49
2023-05-05T19:29:44.657Z,67.82
2023-05-05T19:32:11.379Z,68.16
2023-05-05T19:34:38.098Z,67.72
2023-05-05T19:37:04.824Z,67.54
2023-05-05T19:39:31.689Z,67.74
2023-05-05T19:42:00.410Z,67.69
2023-05-05T19:44:27.076Z,67.09
2023-05-05T19:46:53.876Z,67.27
2023-05-05T19:49:21.452Z,67.41
2023-05-05T19:51:50.554Z,67.41
2023-05-05T19:54:18.137Z,67.45
2023-05-05T19:56:45.327Z,67.58
2023-05-05T19:59:12.110Z,67.21
2023-05-05T20:01:38.820Z,67.74
2023-05-05T20:04:06.101Z,67.63
2023-05-05T20:06:34.670Z,67.22
2023-05-05T20:09:03.106Z,67.74
2023-05-05T20:11:31.246Z,67.60
2023-05-05T20:13:59.141Z,67.89
2023-05-05T20:16:26.462Z,67.60
2023-05-05T20:18:56.174Z,67.92
2023-05-05T20:21:22.867Z,67.38
2023-05-05T20:23:54.553Z,67.60
2023-05-05T20:26:24.469Z,67.70
2023-05-05T20:28:53.417Z,67.65
2023-05-05T20:31:21.658Z,68.38
2023-05-05T20:33:48.544Z,67.79
2023-05-05T20:36:18.300Z,68.06
2023-05-05T20:38:45.315Z,67.54
2023-05-05T20:41:13.149Z,68.01
2023-05-05T20:43:39.816Z,67.85
2023-05-05T20:46:13.085Z,67.82
2023-05-05T20:48:42.763Z,68.64
2023-05-05T20:51:11.448Z,68.82
2023-05-05T20:53:38.252Z,68.75
2023-05-05T20:56:08.624Z,69.10
2023-05-05T20:58:35.855Z,68.61
2023-05-05T21:01:02.580Z,68.60
2023-05-05T21:03:29.323Z,68.69
2023-05-05T21:05:55.964Z,68.66
2023-05-05T21:08:22.556Z,68.69
2023-05-05T21:10:49.440Z,68.97
2023-05-05T21:13:16.314Z,68.72
2023-05-05T21:15:43.161Z,68.86
2023-05-05T21:18:09.938Z,68.88
2023-05-05T21:20:36.709Z,68.67
2023-05-05T21:23:03.960Z,68.89
2023-05-05T21:25:30.881Z,68.62
2023-05-05T21:27:59.516Z,68.98
2023-05-05T21:30:27.472Z,68.83
2023-05-05T21:32:54.177Z,69.54
2023-05-05T21:35:21.129Z,69.58
2023-05-05T21:37:48.841Z,69.71
2023-05-05T21:40:16.281Z,70.27
2023-05-05T21:42:43.332Z,71.05
2023-05-05T21:45:12.840Z,71.03
2023-05-05T21:47:39.674Z,71.78
2023-05-05T21:50:07.097Z,72.03
2023-05-05T21:52:34.073Z,71.81
2023-05-05T21:55:00.891Z,72.75
2023-05-05T21:57:27.647Z,72.94
2023-05-05T21:59:54.410Z,73.16
2023-05-05T22:02:21.072Z,72.72
2023-05-05T22:04:51.183Z,73.01
2023-05-05T22:07:17.799Z,72.79
2023-05-05T22:09:45.553Z,73.30
2023-05-05T22:12:12.946Z,73.37
2023-05-05T22:14:40.635Z,73.65
2023-05-05T22:17:07.318Z,73.83
2023-05-05T22:19:34.004Z,73.73
2023-05-05T22:22:02.722Z,73.00
2023-05-05T22:24:29.947Z,73.32
2023-05-05T22:26:57.393Z,73.38
2023-05-05T22:29:25.372Z,72.78
2023-05-05T22:31:52.031Z,72.55
2023-05-05T22:34:20.499Z,73.06
2023-05-05T22:36:47.359Z,73.06
2023-05-05T22:39:14.076Z,73.29
2023-05-05T22:41:41.134Z,73.78
2023-05-05T22:44:07.776Z,74.11
2023-05-05T22:46:34.437Z,74.63
2023-05-05T22:49:01.569Z,74.32
2023-05-05T22:51:28.228Z,74.70
2023-05-05T22:53:55.170Z,74.62
2023-05-05T22:56:21.690Z,74.63
2023-05-05T22:58:48.665Z,75.70
2023-05-05T23:01:15.401Z,75.39
2023-05-05T23:03:42.104Z,75.71
2023-05-05T23:06:09.343Z,75.53
2023-05-05T23:08:35.923Z,76.32
2023-05-05T23:11:02.903Z,76.15
2023-05-05T23:13:29.607Z,76.43
2023-05-05T23:15:56.500Z,76.62
2023-05-05T23:18:23.236Z,76.99
2023-05-05T23:20:49.928Z,77.77
2023-05-05T23:23:16.598Z,77.86
2023-05-05T23:25:43.224Z,77.47
2023-05-05T23:28:10.102Z,77.98
2023-05-05T23:30:36.710Z,78.17
2023-05-05T23:33:03.960Z,78.23
2023-05-05T23:35:32.183Z,78.75
2023-05-05T23:37:58.736Z,78.74
2023-05-05T23:40:25.540Z,78.85
2023-05-05T23:42:54.190Z,79.17
2023-05-05T23:45:20.881Z,79.40
2023-05-05T23:47:47.523Z,80.03
2023-05-05T23:50:14.221Z,79.63
2023-05-05T23:52:41.977Z,79.72
2023-05-05T23:55:09.187Z,80.43
2023-05-05T23:57:36.937Z,80.04
